SANT/TUC METAR and TAF weather

Enter ICAO airport designator
Station Type Date Time Source
SANT METAR 2019/04/20 22:00 UTC NOAA

SANT 202200Z 36003KT 9000 FEW006 BKN050 23/21 Q1011 RERA


Station Type Date Time Source
SANT Decoded METAR 2019/04/20 22:00 UTC NOAA

Tucuman Aerodrome, Argentina (SANT) 26-51S 065-06W 450M
Apr 20, 2019 - 06:00 PM EDT / 2019.04.20 2200 UTC
Wind: from the N (360 degrees) at 3 MPH (3 KT):0
Visibility: 5 mile(s):0
Sky conditions: mostly cloudy
Temperature: 73 F (23 C)
Dew Point: 69 F (21 C)
Relative Humidity: 88%
Pressure (altimeter): 29.85 in. Hg (1011 hPa)
ob: SANT 202200Z 36003KT 9000 FEW006 BKN050 23/21 Q1011 RERA
cycle: 22

Station Type Date Time Source
SANT TAF 2019/04/20 18:15 UTC NOAA

TAF TAF SANT 201700Z 2018/2118 18005KT 5000 DZ BR SCT010 OVC020 TX22/2118Z TN16/2110Z
BECMG 2023/2101 18010KT 3500 SHRA BKN015 FEW040CB
BECMG 2109/2111 18005KT 0800 FG DZ OVC001
BECMG 2114/2116 18010KT 5000 DZ BR OVC010

Example: see airport list